createdAt,value
2018-06-24T00:01:06.363Z,87.00
2018-06-24T00:03:33.914Z,87.00
2018-06-24T00:06:01.447Z,87.20
2018-06-24T00:08:29.001Z,87.40
2018-06-24T00:10:57.293Z,87.80
2018-06-24T00:13:25.619Z,87.70
2018-06-24T00:15:53.916Z,87.70
2018-06-24T00:18:22.226Z,87.70
2018-06-24T00:20:50.522Z,87.70
2018-06-24T00:23:18.839Z,87.60
2018-06-24T00:25:47.126Z,87.40
2018-06-24T00:28:14.685Z,87.40
2018-06-24T00:30:42.979Z,87.20
2018-06-24T00:33:11.294Z,87.30
2018-06-24T00:35:39.591Z,87.50
2018-06-24T00:38:07.906Z,87.50
2018-06-24T00:40:36.194Z,87.50
2018-06-24T00:43:03.750Z,87.50
2018-06-24T00:45:32.042Z,87.70
2018-06-24T00:47:59.598Z,87.60
2018-06-24T00:50:27.886Z,87.60
2018-06-24T00:52:56.205Z,87.40
2018-06-24T00:55:23.732Z,87.30
2018-06-24T00:57:52.046Z,87.30
2018-06-24T01:00:20.342Z,87.30
2018-06-24T01:02:48.638Z,87.40
2018-06-24T01:05:16.947Z,87.50
2018-06-24T01:07:44.466Z,87.40
2018-06-24T01:10:12.794Z,87.60
2018-06-24T01:12:40.331Z,87.50
2018-06-24T01:15:08.646Z,87.70
2018-06-24T01:17:36.937Z,87.70
2018-06-24T01:20:05.255Z,87.70
2018-06-24T01:22:32.783Z,87.70
2018-06-24T01:25:01.096Z,87.70
2018-06-24T01:27:29.391Z,87.70
2018-06-24T01:29:57.705Z,87.70
2018-06-24T01:32:26.002Z,87.50
2018-06-24T01:34:53.554Z,88.30
2018-06-24T01:37:21.869Z,87.50
2018-06-24T01:39:50.186Z,87.60
2018-06-24T01:42:18.486Z,87.40
2018-06-24T01:44:46.039Z,87.40
2018-06-24T01:47:14.422Z,88.00
2018-06-24T01:49:41.975Z,88.00
2018-06-24T01:52:10.270Z,89.20
2018-06-24T01:54:37.822Z,88.30
2018-06-24T01:57:06.118Z,88.70
2018-06-24T01:59:33.670Z,88.70
2018-06-24T02:02:01.971Z,89.00
2018-06-24T02:04:29.519Z,89.00
2018-06-24T02:06:57.050Z,89.20
2018-06-24T02:09:25.366Z,89.80
2018-06-24T02:11:53.657Z,89.80
2018-06-24T02:14:21.979Z,89.80
2018-06-24T02:16:49.507Z,89.70
2018-06-24T02:19:17.829Z,90.00
2018-06-24T02:21:46.135Z,90.00
2018-06-24T02:24:14.448Z,90.10
2018-06-24T02:26:42.742Z,90.20
2018-06-24T02:29:11.051Z,90.30
2018-06-24T02:31:39.347Z,90.30
2018-06-24T02:34:06.898Z,90.30
2018-06-24T02:36:35.190Z,90.40
2018-06-24T02:39:02.727Z,90.40
2018-06-24T02:41:31.046Z,90.70
2018-06-24T02:43:59.345Z,90.70
2018-06-24T02:46:27.665Z,90.70
2018-06-24T02:48:55.958Z,90.70
2018-06-24T02:51:24.271Z,90.80
2018-06-24T02:53:51.795Z,90.80
2018-06-24T02:56:19.344Z,90.90
2018-06-24T02:58:47.643Z,91.00
2018-06-24T03:01:15.962Z,91.00
2018-06-24T03:03:44.257Z,91.00
2018-06-24T03:06:11.806Z,91.00
2018-06-24T03:08:40.098Z,91.20
2018-06-24T03:11:08.407Z,91.20
2018-06-24T03:13:35.933Z,91.20
2018-06-24T03:16:03.486Z,91.20
2018-06-24T03:18:31.011Z,91.40
2018-06-24T03:20:59.340Z,91.40
2018-06-24T03:23:27.638Z,91.40
2018-06-24T03:25:55.218Z,91.40
2018-06-24T03:28:23.519Z,91.40
2018-06-24T03:30:51.837Z,91.40
2018-06-24T03:33:19.370Z,91.40
2018-06-24T03:35:47.683Z,91.50
2018-06-24T03:38:15.215Z,91.50
2018-06-24T03:40:43.525Z,91.50
2018-06-24T03:43:11.057Z,91.50
2018-06-24T03:45:38.606Z,91.60
2018-06-24T03:48:06.906Z,91.60
2018-06-24T03:50:35.218Z,91.80
2018-06-24T03:53:03.509Z,91.80
2018-06-24T03:55:31.829Z,91.70
2018-06-24T03:58:00.171Z,91.90
2018-06-24T04:00:28.476Z,91.90
2018-06-24T04:02:56.774Z,91.90
2018-06-24T04:05:24.334Z,91.90
2018-06-24T04:07:51.866Z,92.00
2018-06-24T04:10:20.179Z,91.30
2018-06-24T04:12:47.711Z,91.30
2018-06-24T04:15:16.027Z,91.10
2018-06-24T04:17:44.322Z,90.90
2018-06-24T04:20:12.654Z,90.90
2018-06-24T04:22:40.946Z,90.80
2018-06-24T04:25:08.484Z,90.80
2018-06-24T04:27:36.044Z,90.70
2018-06-24T04:30:04.351Z,90.60
2018-06-24T04:32:32.666Z,90.60
2018-06-24T04:35:00.958Z,90.40
2018-06-24T04:37:29.275Z,90.10
2018-06-24T04:39:56.806Z,90.10
2018-06-24T04:42:25.221Z,90.00
2018-06-24T04:44:53.543Z,89.10
2018-06-24T04:47:21.141Z,89.00
2018-06-24T04:49:49.463Z,85.90
2018-06-24T04:52:17.823Z,82.90
2018-06-24T04:54:46.137Z,79.40
2018-06-24T04:57:14.447Z,75.70
2018-06-24T04:59:42.741Z,72.80
2018-06-24T05:02:11.041Z,69.80
2018-06-24T05:04:38.562Z,69.70
2018-06-24T05:07:06.866Z,65.90
2018-06-24T05:09:34.395Z,66.00
2018-06-24T05:12:02.712Z,65.80
2018-06-24T05:14:31.001Z,66.60
2018-06-24T05:16:59.348Z,67.70
2018-06-24T05:19:26.855Z,67.70
2018-06-24T05:21:55.161Z,69.80
2018-06-24T05:24:23.454Z,70.50
2018-06-24T05:26:51.779Z,71.10
2018-06-24T05:29:19.335Z,71.00
2018-06-24T05:31:47.656Z,71.20
2018-06-24T05:34:15.175Z,71.30
2018-06-24T05:36:42.726Z,71.50
2018-06-24T05:39:11.019Z,70.70
2018-06-24T05:41:39.343Z,69.90
2018-06-24T05:44:07.639Z,69.30
2018-06-24T05:46:35.182Z,69.20
2018-06-24T05:49:02.711Z,68.90
2018-06-24T05:51:31.027Z,67.60
2018-06-24T05:53:59.323Z,67.40
2018-06-24T05:56:27.639Z,67.20
2018-06-24T05:58:55.174Z,67.20
2018-06-24T06:01:23.487Z,65.30
2018-06-24T06:03:51.014Z,65.20
2018-06-24T06:06:19.360Z,63.80
2018-06-24T06:08:47.650Z,65.10
2018-06-24T06:11:15.977Z,66.40
2018-06-24T06:13:43.507Z,66.40
2018-06-24T06:16:11.092Z,67.00
2018-06-24T06:18:39.374Z,66.60
2018-06-24T06:21:07.666Z,65.30
2018-06-24T06:23:35.980Z,64.20
2018-06-24T06:26:04.271Z,62.40
2018-06-24T06:28:32.582Z,61.90
2018-06-24T06:31:00.917Z,61.20
2018-06-24T06:33:28.767Z,61.10
2018-06-24T06:35:56.295Z,59.90
2018-06-24T06:38:24.612Z,58.60
2018-06-24T06:40:52.902Z,57.90
2018-06-24T06:43:21.218Z,57.80
2018-06-24T06:45:48.911Z,57.80
2018-06-24T06:48:16.322Z,57.90
2018-06-24T06:50:44.610Z,56.70
2018-06-24T06:53:12.158Z,56.70
2018-06-24T06:55:39.719Z,56.90
2018-06-24T06:58:07.274Z,56.00
2018-06-24T07:00:35.558Z,55.70
2018-06-24T07:03:03.110Z,55.70
2018-06-24T07:05:31.406Z,55.60
2018-06-24T07:07:58.954Z,55.60
2018-06-24T07:10:27.247Z,55.60
2018-06-24T07:12:55.596Z,55.90
2018-06-24T07:15:23.107Z,55.80
2018-06-24T07:17:51.427Z,56.00
2018-06-24T07:20:19.718Z,55.40
2018-06-24T07:22:47.271Z,55.40
2018-06-24T07:25:14.802Z,54.90
2018-06-24T07:27:42.416Z,55.40
2018-06-24T07:30:10.666Z,56.40
2018-06-24T07:32:38.218Z,56.40
2018-06-24T07:35:05.759Z,55.80
2018-06-24T07:37:33.306Z,55.20
2018-06-24T07:40:00.838Z,54.30
2018-06-24T07:42:29.160Z,54.00
2018-06-24T07:44:57.463Z,53.40
2018-06-24T07:47:25.010Z,53.40
2018-06-24T07:49:53.306Z,52.30
2018-06-24T07:52:21.620Z,52.90
2018-06-24T07:54:49.158Z,52.90
2018-06-24T07:57:16.716Z,53.00
2018-06-24T07:59:44.244Z,53.00
2018-06-24T08:02:12.534Z,51.60
2018-06-24T08:04:40.079Z,51.60
2018-06-24T08:07:07.607Z,52.10
2018-06-24T08:09:35.926Z,51.70
2018-06-24T08:12:04.229Z,50.80
2018-06-24T08:14:32.538Z,50.20
2018-06-24T08:17:00.847Z,49.90
2018-06-24T08:19:28.398Z,49.90
2018-06-24T08:21:56.694Z,50.00
2018-06-24T08:24:25.014Z,49.50
2018-06-24T08:26:52.538Z,49.50
2018-06-24T08:29:20.087Z,48.70
2018-06-24T08:31:48.379Z,46.20
2018-06-24T08:34:15.934Z,46.20
2018-06-24T08:36:43.458Z,46.40
2018-06-24T08:39:11.010Z,46.20
2018-06-24T08:41:39.334Z,46.90
2018-06-24T08:44:06.885Z,46.90
2018-06-24T08:46:34.417Z,46.90
2018-06-24T08:49:01.966Z,47.00
2018-06-24T08:51:30.257Z,47.30
2018-06-24T08:53:58.574Z,47.60
2018-06-24T08:56:26.102Z,47.60
2018-06-24T08:58:53.653Z,47.60
2018-06-24T09:01:21.945Z,47.10
2018-06-24T09:03:49.500Z,46.50
2018-06-24T09:06:17.031Z,46.60
2018-06-24T09:08:44.579Z,47.60
2018-06-24T09:11:12.915Z,47.40
2018-06-24T09:13:40.467Z,47.30
2018-06-24T09:16:07.985Z,47.90
2018-06-24T09:18:35.536Z,48.30
2018-06-24T09:21:03.822Z,46.10
2018-06-24T09:23:31.373Z,46.00
2018-06-24T09:25:59.259Z,45.20
2018-06-24T09:28:26.797Z,43.80
2018-06-24T09:30:55.110Z,44.00
2018-06-24T09:33:22.645Z,44.00
2018-06-24T09:35:50.166Z,43.10
2018-06-24T09:38:17.718Z,42.50
2018-06-24T09:40:46.007Z,43.00
2018-06-24T09:43:13.538Z,43.00
2018-06-24T09:45:41.085Z,43.10
2018-06-24T09:48:08.603Z,42.60
2018-06-24T09:50:36.922Z,41.90
2018-06-24T09:53:04.446Z,41.90
2018-06-24T09:55:31.995Z,41.30
2018-06-24T09:57:59.521Z,41.20
2018-06-24T10:00:27.832Z,42.60
2018-06-24T10:02:55.358Z,42.50
2018-06-24T10:05:22.914Z,42.50
2018-06-24T10:07:50.436Z,43.10
2018-06-24T10:10:18.746Z,43.70
2018-06-24T10:12:47.042Z,43.30
2018-06-24T10:15:15.362Z,41.80
2018-06-24T10:17:42.891Z,41.80
2018-06-24T10:20:11.210Z,41.50
2018-06-24T10:22:38.739Z,41.50
2018-06-24T10:25:06.309Z,41.50
2018-06-24T10:27:33.835Z,41.70
2018-06-24T10:30:01.401Z,40.60
2018-06-24T10:32:29.702Z,40.90
2018-06-24T10:34:57.250Z,40.90
2018-06-24T10:37:24.779Z,40.90
2018-06-24T10:39:52.337Z,40.70
2018-06-24T10:42:20.631Z,40.10
2018-06-24T10:44:48.182Z,40.10
2018-06-24T10:47:15.710Z,40.20
2018-06-24T10:49:43.259Z,39.90
2018-06-24T10:52:11.554Z,40.10
2018-06-24T10:54:39.867Z,40.20
2018-06-24T10:57:07.407Z,40.20
2018-06-24T10:59:34.961Z,40.30
2018-06-24T11:02:03.304Z,39.50
2018-06-24T11:04:30.827Z,38.90
2018-06-24T11:06:59.126Z,39.00
2018-06-24T11:09:26.681Z,39.00
2018-06-24T11:11:54.971Z,39.60
2018-06-24T11:14:22.521Z,39.60
2018-06-24T11:16:50.056Z,39.40
2018-06-24T11:19:17.606Z,38.90
2018-06-24T11:21:45.931Z,37.30
2018-06-24T11:24:13.451Z,37.20
2018-06-24T11:26:41.018Z,37.70
2018-06-24T11:29:09.314Z,38.00
2018-06-24T11:31:37.631Z,38.00
2018-06-24T11:34:05.923Z,37.90
2018-06-24T11:36:33.483Z,37.90
2018-06-24T11:39:01.017Z,38.60
2018-06-24T11:41:29.334Z,39.00
2018-06-24T11:43:56.865Z,39.00
2018-06-24T11:46:24.416Z,38.60
2018-06-24T11:48:51.943Z,38.40
2018-06-24T11:51:20.258Z,37.20
2018-06-24T11:53:47.787Z,37.20
2018-06-24T11:56:15.334Z,38.20
2018-06-24T11:58:42.866Z,37.30
2018-06-24T12:01:11.175Z,37.10
2018-06-24T12:03:38.708Z,37.10
2018-06-24T12:06:06.269Z,37.50
2018-06-24T12:08:33.796Z,37.70
2018-06-24T12:11:02.111Z,37.90
2018-06-24T12:13:29.637Z,37.90
2018-06-24T12:15:57.195Z,37.70
2018-06-24T12:18:24.727Z,37.90
2018-06-24T12:20:53.037Z,38.70
2018-06-24T12:23:20.558Z,38.60
2018-06-24T12:25:48.107Z,38.80
2018-06-24T12:28:15.642Z,39.00
2018-06-24T12:30:44.022Z,38.40
2018-06-24T12:33:11.503Z,38.40
2018-06-24T12:35:39.063Z,38.70
2018-06-24T12:38:06.587Z,39.70
2018-06-24T12:40:34.911Z,40.60
2018-06-24T12:43:02.516Z,40.60
2018-06-24T12:45:30.018Z,39.70
2018-06-24T12:47:58.314Z,38.40
2018-06-24T12:50:26.632Z,38.70
2018-06-24T12:52:54.342Z,38.60
2018-06-24T12:55:21.727Z,39.20
2018-06-24T12:57:49.251Z,38.90
2018-06-24T13:00:18.207Z,38.10
2018-06-24T13:02:45.114Z,38.00
2018-06-24T13:05:12.668Z,38.00
2018-06-24T13:07:40.219Z,38.50
2018-06-24T13:10:08.524Z,39.40
2018-06-24T13:12:36.088Z,39.40
2018-06-24T13:15:04.374Z,38.80
2018-06-24T13:17:32.690Z,39.70
2018-06-24T13:20:01.032Z,39.60
2018-06-24T13:22:29.358Z,39.60
2018-06-24T13:24:56.882Z,39.60
2018-06-24T13:27:24.426Z,39.90
2018-06-24T13:29:52.719Z,39.80
2018-06-24T13:32:21.039Z,39.50
2018-06-24T13:34:48.575Z,39.50
2018-06-24T13:37:16.123Z,39.30
2018-06-24T13:39:43.645Z,39.40
2018-06-24T13:42:11.976Z,40.40
2018-06-24T13:44:39.527Z,40.40
2018-06-24T13:47:07.834Z,39.60
2018-06-24T13:49:36.122Z,40.10
2018-06-24T13:52:04.434Z,40.60
2018-06-24T13:54:32.724Z,41.20
2018-06-24T13:57:00.273Z,41.20
2018-06-24T13:59:27.799Z,40.90
2018-06-24T14:01:56.124Z,41.40
2018-06-24T14:04:23.649Z,41.40
2018-06-24T14:06:51.199Z,41.50
2018-06-24T14:09:18.731Z,41.40
2018-06-24T14:11:47.126Z,40.60
2018-06-24T14:14:15.538Z,40.90
2018-06-24T14:16:43.951Z,40.60
2018-06-24T14:19:11.550Z,40.60
2018-06-24T14:21:39.868Z,40.90
2018-06-24T14:24:07.391Z,40.90
2018-06-24T14:26:34.943Z,40.30
2018-06-24T14:29:02.556Z,40.00
2018-06-24T14:31:30.793Z,40.30
2018-06-24T14:33:58.313Z,40.30
2018-06-24T14:36:25.862Z,39.90
2018-06-24T14:38:54.147Z,39.20
2018-06-24T14:41:22.455Z,38.80
2018-06-24T14:43:49.987Z,38.70
2018-06-24T14:46:18.303Z,39.50
2018-06-24T14:48:45.838Z,39.40
2018-06-24T14:51:14.150Z,39.40
2018-06-24T14:53:41.679Z,39.30
2018-06-24T14:56:09.973Z,41.20
2018-06-24T14:58:37.523Z,41.10
2018-06-24T15:01:05.806Z,41.50
2018-06-24T15:03:33.355Z,41.50
2018-06-24T15:06:00.883Z,40.70
2018-06-24T15:08:28.430Z,40.60
2018-06-24T15:10:56.723Z,38.90
2018-06-24T15:13:24.259Z,38.80
2018-06-24T15:15:51.779Z,39.10
2018-06-24T15:18:19.322Z,39.00
2018-06-24T15:20:47.606Z,39.20
2018-06-24T15:23:15.147Z,39.20
2018-06-24T15:25:42.670Z,38.90
2018-06-24T15:28:10.212Z,38.80
2018-06-24T15:30:38.523Z,38.70
2018-06-24T15:33:06.070Z,38.50
2018-06-24T15:35:33.590Z,39.50
2018-06-24T15:38:01.126Z,38.70
2018-06-24T15:40:29.428Z,39.10
2018-06-24T15:42:57.058Z,39.10
2018-06-24T15:45:24.648Z,38.40
2018-06-24T15:47:52.342Z,38.60
2018-06-24T15:50:20.751Z,40.60
2018-06-24T15:52:48.348Z,40.60
2018-06-24T15:55:16.041Z,41.00
2018-06-24T15:57:43.585Z,40.90
2018-06-24T16:00:11.875Z,40.60
2018-06-24T16:02:39.414Z,40.60
2018-06-24T16:05:06.994Z,40.50
2018-06-24T16:07:34.594Z,40.70
2018-06-24T16:10:03.002Z,41.70
2018-06-24T16:12:31.417Z,41.50
2018-06-24T16:14:59.016Z,41.50
2018-06-24T16:17:26.610Z,41.50
2018-06-24T16:19:54.215Z,42.20
2018-06-24T16:22:22.533Z,42.30
2018-06-24T16:24:50.060Z,42.30
2018-06-24T16:27:17.602Z,42.60
2018-06-24T16:29:45.123Z,42.50
2018-06-24T16:32:13.442Z,42.40
2018-06-24T16:34:40.967Z,42.40
2018-06-24T16:37:08.503Z,42.90
2018-06-24T16:39:36.050Z,43.40
2018-06-24T16:42:04.346Z,43.90
2018-06-24T16:44:31.887Z,43.90
2018-06-24T16:46:59.432Z,43.60
2018-06-24T16:49:27.744Z,44.40
2018-06-24T16:51:56.028Z,44.70
2018-06-24T16:54:23.574Z,44.60
2018-06-24T16:56:51.097Z,44.90
2018-06-24T16:59:19.410Z,45.60
2018-06-24T17:01:47.704Z,45.70
2018-06-24T17:04:15.246Z,45.70
2018-06-24T17:06:42.779Z,45.60
2018-06-24T17:09:10.326Z,45.60
2018-06-24T17:11:38.606Z,46.00
2018-06-24T17:14:06.918Z,46.20
2018-06-24T17:16:34.452Z,46.10
2018-06-24T17:19:01.992Z,46.70
2018-06-24T17:21:30.288Z,47.70
2018-06-24T17:23:58.594Z,48.70
2018-06-24T17:26:26.120Z,48.70
2018-06-24T17:28:53.662Z,49.40
2018-06-24T17:31:21.947Z,50.20
2018-06-24T17:33:49.499Z,50.20
2018-06-24T17:36:17.035Z,50.30
2018-06-24T17:38:44.583Z,50.30
2018-06-24T17:41:12.874Z,50.70
2018-06-24T17:43:40.463Z,50.70
2018-06-24T17:46:07.992Z,51.20
2018-06-24T17:48:35.532Z,51.40
2018-06-24T17:51:03.814Z,51.80
2018-06-24T17:53:31.376Z,51.80
2018-06-24T17:55:58.907Z,52.00
2018-06-24T17:58:26.451Z,52.30
2018-06-24T18:00:54.737Z,52.80
2018-06-24T18:03:22.286Z,52.90
2018-06-24T18:05:50.574Z,53.10
2018-06-24T18:08:18.166Z,53.10
2018-06-24T18:10:46.426Z,53.60
2018-06-24T18:13:13.969Z,53.60
2018-06-24T18:15:41.495Z,53.90
2018-06-24T18:18:09.057Z,54.20
2018-06-24T18:20:37.373Z,54.70
2018-06-24T18:23:04.904Z,54.70
2018-06-24T18:25:32.465Z,55.10
2018-06-24T18:28:00.062Z,55.40
2018-06-24T18:30:28.314Z,55.70
2018-06-24T18:32:56.597Z,56.00
2018-06-24T18:35:24.141Z,56.00
2018-06-24T18:37:51.674Z,56.30
2018-06-24T18:40:19.982Z,56.30
2018-06-24T18:42:47.502Z,56.30
2018-06-24T18:45:15.071Z,56.50
2018-06-24T18:47:42.599Z,56.70
2018-06-24T18:50:10.916Z,57.00
2018-06-24T18:52:38.434Z,57.00
2018-06-24T18:55:05.970Z,57.20
2018-06-24T18:57:33.490Z,57.50
2018-06-24T19:00:01.037Z,57.90
2018-06-24T19:02:29.351Z,58.80
2018-06-24T19:04:57.672Z,58.30
2018-06-24T19:07:25.954Z,58.40
2018-06-24T19:09:53.499Z,58.30
2018-06-24T19:12:21.788Z,58.50
2018-06-24T19:14:50.096Z,58.60
2018-06-24T19:17:18.403Z,58.70
2018-06-24T19:19:45.951Z,58.70
2018-06-24T19:22:14.242Z,58.90
2018-06-24T19:24:41.787Z,58.90
2018-06-24T19:27:09.345Z,59.00
2018-06-24T19:29:36.877Z,59.20
2018-06-24T19:32:05.166Z,59.70
2018-06-24T19:34:32.734Z,59.60
2018-06-24T19:37:00.262Z,59.80
2018-06-24T19:39:27.811Z,59.90
2018-06-24T19:41:56.096Z,60.40
2018-06-24T19:44:23.636Z,60.40
2018-06-24T19:46:51.921Z,60.90
2018-06-24T19:49:19.468Z,60.90
2018-06-24T19:51:47.756Z,61.60
2018-06-24T19:54:16.071Z,62.20
2018-06-24T19:56:43.600Z,62.20
2018-06-24T19:59:11.164Z,62.40
2018-06-24T20:01:39.454Z,63.20
2018-06-24T20:04:06.983Z,63.20
2018-06-24T20:06:35.296Z,63.90
2018-06-24T20:09:02.826Z,63.90
2018-06-24T20:11:31.147Z,64.30
2018-06-24T20:13:58.684Z,64.30
2018-06-24T20:16:26.232Z,64.60
2018-06-24T20:18:54.531Z,65.60
2018-06-24T20:21:22.836Z,65.40
2018-06-24T20:23:50.359Z,65.40
2018-06-24T20:26:17.898Z,65.20
2018-06-24T20:28:45.420Z,65.20
2018-06-24T20:31:13.727Z,65.50
2018-06-24T20:33:42.009Z,66.10
2018-06-24T20:36:09.558Z,66.00
2018-06-24T20:38:37.074Z,66.20
2018-06-24T20:41:05.421Z,66.20
2018-06-24T20:43:32.949Z,66.20
2018-06-24T20:46:00.503Z,66.20
2018-06-24T20:48:28.027Z,66.20
2018-06-24T20:50:56.395Z,66.40
2018-06-24T20:53:23.875Z,66.40
2018-06-24T20:55:51.418Z,66.50
2018-06-24T20:58:18.951Z,66.70
2018-06-24T21:00:47.267Z,67.20
2018-06-24T21:03:15.547Z,67.00
2018-06-24T21:05:43.858Z,67.20
2018-06-24T21:08:11.377Z,67.20
2018-06-24T21:10:39.688Z,67.70
2018-06-24T21:13:07.981Z,67.80
2018-06-24T21:15:35.552Z,67.80
2018-06-24T21:18:03.082Z,68.10
2018-06-24T21:20:31.394Z,68.40
2018-06-24T21:22:58.919Z,68.30
2018-06-24T21:25:27.241Z,69.10
2018-06-24T21:27:55.539Z,69.10
2018-06-24T21:30:23.854Z,69.30
2018-06-24T21:32:51.382Z,69.20
2018-06-24T21:35:19.699Z,70.00
2018-06-24T21:37:47.214Z,70.00
2018-06-24T21:40:15.526Z,70.40
2018-06-24T21:42:43.054Z,70.40
2018-06-24T21:45:10.610Z,70.60
2018-06-24T21:47:38.903Z,71.50
2018-06-24T21:50:07.303Z,71.40
2018-06-24T21:52:34.854Z,71.40
2018-06-24T21:55:03.149Z,72.60
2018-06-24T21:57:31.475Z,73.60
2018-06-24T21:59:59.002Z,74.40
2018-06-24T22:02:27.312Z,76.20
2018-06-24T22:04:54.838Z,76.30
2018-06-24T22:07:22.390Z,77.30
2018-06-24T22:09:50.687Z,79.50
2018-06-24T22:12:18.998Z,80.70
2018-06-24T22:14:47.295Z,81.50
2018-06-24T22:17:15.619Z,82.20
2018-06-24T22:19:43.144Z,82.20
2018-06-24T22:22:11.454Z,83.40
2018-06-24T22:24:39.753Z,84.10
2018-06-24T22:27:07.331Z,84.00
2018-06-24T22:29:34.848Z,84.40
2018-06-24T22:32:03.160Z,85.30
2018-06-24T22:34:31.448Z,85.70
2018-06-24T22:36:59.751Z,86.20
2018-06-24T22:39:27.278Z,86.20
2018-06-24T22:41:55.589Z,87.00
2018-06-24T22:44:23.876Z,87.70
2018-06-24T22:46:52.198Z,88.00
2018-06-24T22:49:19.723Z,87.90
2018-06-24T22:51:48.049Z,88.30
2018-06-24T22:54:16.347Z,88.30
2018-06-24T22:56:44.663Z,87.70
2018-06-24T23:02:19.901Z,87.50
2018-06-24T23:04:48.217Z,87.50
2018-06-24T23:07:16.559Z,88.30
2018-06-24T23:09:44.884Z,88.80
2018-06-24T23:12:13.219Z,88.30
2018-06-24T23:14:41.547Z,88.90
2018-06-24T23:17:09.893Z,89.00
2018-06-24T23:19:38.208Z,89.20
2018-06-24T23:22:06.552Z,89.90
2018-06-24T23:24:34.869Z,90.40
2018-06-24T23:27:03.208Z,90.50
2018-06-24T23:29:31.517Z,90.60
2018-06-24T23:31:59.855Z,90.90
2018-06-24T23:34:28.168Z,90.90
2018-06-24T23:36:56.518Z,90.80
2018-06-24T23:39:24.837Z,90.70
2018-06-24T23:41:53.188Z,90.80
2018-06-24T23:44:21.512Z,90.70
2018-06-24T23:46:49.085Z,90.60
2018-06-24T23:49:17.404Z,90.70
2018-06-24T23:51:45.745Z,90.70
2018-06-24T23:54:14.052Z,90.60
2018-06-24T23:56:42.391Z,90.60
2018-06-24T23:59:10.717Z,90.60
